createdAt,value
2022-11-17T00:03:29.408Z,5.57
2022-11-17T00:08:35.737Z,5.11
2022-11-17T00:13:41.789Z,5.37
2022-11-17T00:18:47.987Z,5.33
2022-11-17T00:23:54.133Z,5.76
2022-11-17T00:29:00.595Z,5.31
2022-11-17T00:34:06.681Z,5.53
2022-11-17T00:39:12.852Z,5.89
2022-11-17T00:44:18.960Z,5.67
2022-11-17T00:49:25.560Z,5.60
2022-11-17T00:54:31.623Z,5.80
2022-11-17T00:59:37.897Z,5.97
2022-11-17T01:04:44.021Z,6.31
2022-11-17T01:09:50.311Z,6.21
2022-11-17T01:14:56.357Z,5.80
2022-11-17T01:20:02.502Z,6.23
2022-11-17T01:25:08.559Z,6.70
2022-11-17T01:30:14.762Z,6.69
2022-11-17T01:35:20.894Z,6.97
2022-11-17T01:40:27.044Z,6.43
2022-11-17T01:45:33.106Z,5.95
2022-11-17T01:50:39.299Z,6.37
2022-11-17T01:55:45.388Z,6.17
2022-11-17T02:00:51.618Z,6.08
2022-11-17T02:05:57.687Z,6.04
2022-11-17T02:11:03.842Z,5.11
2022-11-17T02:16:09.942Z,5.07
2022-11-17T02:21:19.034Z,5.24
2022-11-17T02:26:25.102Z,4.85
2022-11-17T02:31:31.254Z,4.71
2022-11-17T02:36:37.419Z,4.38
2022-11-17T02:41:43.981Z,4.36
2022-11-17T02:46:50.100Z,4.33
2022-11-17T02:51:56.285Z,3.99
2022-11-17T02:57:02.368Z,3.81
2022-11-17T03:02:08.603Z,3.76
2022-11-17T03:07:14.755Z,3.93
2022-11-17T03:12:21.239Z,3.91
2022-11-17T03:17:27.316Z,3.46
2022-11-17T03:22:33.616Z,3.90
2022-11-17T03:27:39.680Z,3.85
2022-11-17T03:32:45.856Z,4.13
2022-11-17T03:37:51.923Z,4.32
2022-11-17T03:42:58.132Z,4.52
2022-11-17T03:48:04.190Z,4.91
2022-11-17T03:53:10.385Z,5.16
2022-11-17T03:58:16.458Z,4.73
2022-11-17T04:03:23.364Z,4.77
2022-11-17T04:08:29.546Z,4.87
2022-11-17T04:13:36.102Z,5.27
2022-11-17T04:18:41.372Z,5.43
2022-11-17T04:23:47.528Z,5.51
2022-11-17T04:28:53.645Z,5.85
2022-11-17T04:33:59.799Z,5.66
2022-11-17T04:39:05.909Z,6.11
2022-11-17T04:44:12.091Z,6.02
2022-11-17T04:49:18.157Z,5.78
2022-11-17T04:54:24.379Z,5.68
2022-11-17T04:59:30.442Z,6.38
2022-11-17T05:04:36.710Z,6.27
2022-11-17T05:09:42.772Z,6.64
2022-11-17T05:14:49.009Z,6.65
2022-11-17T05:19:55.129Z,6.86
2022-11-17T05:25:01.708Z,6.55
2022-11-17T05:30:08.094Z,6.89
2022-11-17T05:35:14.386Z,7.08
2022-11-17T05:40:20.471Z,7.52
2022-11-17T05:45:26.831Z,8.23
2022-11-17T05:50:35.700Z,7.22
2022-11-17T05:55:41.953Z,7.65
2022-11-17T06:00:48.028Z,7.61
2022-11-17T06:05:54.271Z,7.58
2022-11-17T06:11:00.414Z,7.28
2022-11-17T06:16:07.213Z,7.38
2022-11-17T06:21:14.083Z,7.61
2022-11-17T06:26:20.179Z,7.19
2022-11-17T06:31:26.596Z,7.10
2022-11-17T06:36:32.826Z,7.96
2022-11-17T06:41:38.895Z,8.95
2022-11-17T06:46:48.812Z,9.11
2022-11-17T06:51:50.643Z,8.77
2022-11-17T06:56:56.886Z,9.42
2022-11-17T07:02:02.972Z,9.10
2022-11-17T07:07:09.216Z,10.04
2022-11-17T07:12:15.233Z,10.70
2022-11-17T07:17:21.487Z,10.39
2022-11-17T07:22:27.567Z,10.69
2022-11-17T07:27:34.668Z,11.58
2022-11-17T07:32:40.764Z,10.38
2022-11-17T07:37:47.000Z,10.73
2022-11-17T07:42:53.092Z,11.14
2022-11-17T07:47:59.250Z,11.31
2022-11-17T07:53:05.357Z,10.69
2022-11-17T07:58:11.922Z,11.33
2022-11-17T08:03:18.097Z,10.62
2022-11-17T08:08:24.273Z,10.62
2022-11-17T08:13:30.461Z,10.15
2022-11-17T08:18:37.272Z,9.68
2022-11-17T08:23:43.353Z,10.32
2022-11-17T08:28:53.657Z,9.68
2022-11-17T08:33:55.157Z,9.93
2022-11-17T08:39:01.429Z,10.15
2022-11-17T08:44:07.516Z,10.70
2022-11-17T08:49:13.795Z,11.05
2022-11-17T08:54:19.911Z,9.89
2022-11-17T08:59:26.225Z,10.61
2022-11-17T09:04:32.351Z,11.47
2022-11-17T09:09:38.567Z,15.84
2022-11-17T09:14:44.625Z,9.60
2022-11-17T09:19:50.879Z,10.25
2022-11-17T09:24:56.985Z,9.94
2022-11-17T09:30:03.192Z,9.27
2022-11-17T09:35:09.317Z,9.53
2022-11-17T09:40:15.508Z,9.61
2022-11-17T09:45:21.606Z,9.36
2022-11-17T09:50:27.803Z,9.67
2022-11-17T09:55:34.578Z,8.94
2022-11-17T10:00:39.781Z,8.31
2022-11-17T10:05:45.908Z,8.92
2022-11-17T10:10:52.160Z,8.99
2022-11-17T10:15:58.304Z,8.77
2022-11-17T10:21:04.531Z,9.43
2022-11-17T10:26:10.699Z,9.03
2022-11-17T10:31:17.120Z,8.85
2022-11-17T10:36:23.274Z,7.93
2022-11-17T10:41:29.528Z,8.10
2022-11-17T10:46:43.170Z,8.82
2022-11-17T10:51:41.485Z,8.16
2022-11-17T10:56:47.679Z,8.17
2022-11-17T11:01:53.931Z,8.04
2022-11-17T11:07:00.135Z,8.35
2022-11-17T11:12:06.375Z,8.16
2022-11-17T11:17:12.610Z,7.95
2022-11-17T11:22:21.404Z,7.95
2022-11-17T11:27:25.216Z,7.98
2022-11-17T11:32:31.435Z,7.75
2022-11-17T11:37:37.588Z,7.54
2022-11-17T11:42:43.862Z,7.67
2022-11-17T11:47:50.005Z,7.39
2022-11-17T11:52:56.334Z,6.19
2022-11-17T11:58:03.357Z,6.38
2022-11-17T12:03:10.071Z,5.59
2022-11-17T12:08:16.169Z,5.72
2022-11-17T12:13:22.371Z,5.53
2022-11-17T12:18:29.377Z,5.51
2022-11-17T12:23:35.599Z,5.06
2022-11-17T12:28:41.708Z,5.12
2022-11-17T12:33:48.025Z,5.39
2022-11-17T12:38:54.168Z,5.13
2022-11-17T12:44:00.341Z,5.07
2022-11-17T12:49:06.496Z,4.53
2022-11-17T12:54:13.464Z,4.82
2022-11-17T12:59:18.675Z,4.79
2022-11-17T13:04:24.868Z,4.45
2022-11-17T13:09:30.987Z,4.48
2022-11-17T13:14:37.246Z,4.40
2022-11-17T13:19:43.374Z,4.23
2022-11-17T13:24:49.640Z,4.00
2022-11-17T13:29:55.765Z,4.04
2022-11-17T13:35:02.070Z,3.59
2022-11-17T13:40:08.229Z,4.00
2022-11-17T13:45:14.442Z,4.63
2022-11-17T13:50:21.451Z,4.14
2022-11-17T13:55:27.769Z,3.87
2022-11-17T14:00:35.103Z,4.26
2022-11-17T14:05:41.307Z,4.15
2022-11-17T14:10:47.417Z,4.30
2022-11-17T14:15:53.957Z,3.90
2022-11-17T14:21:00.220Z,4.15
2022-11-17T14:26:06.425Z,3.95
2022-11-17T14:31:12.529Z,4.16
2022-11-17T14:36:18.779Z,4.18
2022-11-17T14:41:24.969Z,4.17
2022-11-17T14:46:31.293Z,4.50
2022-11-17T14:51:37.404Z,4.41
2022-11-17T14:56:43.618Z,4.43
2022-11-17T15:01:49.769Z,4.40
2022-11-17T15:06:56.076Z,4.53
2022-11-17T15:12:02.176Z,4.33
2022-11-17T15:17:13.861Z,4.20
2022-11-17T15:22:14.537Z,4.26
2022-11-17T15:27:20.754Z,4.24
2022-11-17T15:32:26.897Z,4.11
2022-11-17T15:37:33.157Z,4.19
2022-11-17T15:42:39.263Z,4.34
2022-11-17T15:47:45.474Z,4.12
2022-11-17T15:53:04.058Z,4.31
2022-11-17T15:57:58.333Z,4.41
2022-11-17T16:03:04.506Z,4.57
2022-11-17T16:08:10.696Z,4.75
2022-11-17T16:13:16.808Z,4.95
2022-11-17T16:18:22.993Z,4.67
2022-11-17T16:23:30.077Z,4.92
2022-11-17T16:28:36.448Z,4.71
2022-11-17T16:33:42.951Z,4.91
2022-11-17T16:39:00.281Z,4.63
2022-11-17T16:43:54.917Z,4.79
2022-11-17T16:49:01.076Z,4.93
2022-11-17T16:54:07.599Z,4.64
2022-11-17T16:59:14.093Z,4.78
2022-11-17T17:04:19.459Z,4.84
2022-11-17T17:09:28.039Z,5.00
2022-11-17T17:14:32.180Z,4.68
2022-11-17T17:19:38.395Z,5.03
2022-11-17T17:24:45.213Z,5.06
2022-11-17T17:29:52.505Z,5.19
2022-11-17T17:34:58.728Z,5.39
2022-11-17T17:40:05.039Z,5.58
2022-11-17T17:45:11.193Z,5.22
2022-11-17T17:50:17.932Z,6.04
2022-11-17T17:55:24.455Z,6.05
2022-11-17T18:00:30.731Z,5.53
2022-11-17T18:05:36.873Z,5.89
2022-11-17T18:10:43.084Z,6.47
2022-11-17T18:15:49.216Z,6.29
2022-11-17T18:20:55.442Z,5.72
2022-11-17T18:26:01.548Z,5.86
2022-11-17T18:31:07.761Z,5.29
2022-11-17T18:36:13.885Z,5.17
2022-11-17T18:41:20.187Z,5.34
2022-11-17T18:46:26.381Z,5.65
2022-11-17T18:51:32.608Z,5.44
2022-11-17T18:56:38.760Z,5.42
2022-11-17T19:01:45.161Z,5.99
2022-11-17T19:06:51.630Z,5.85
2022-11-17T19:11:58.157Z,6.33
2022-11-17T19:17:04.657Z,6.68
2022-11-17T19:22:10.913Z,6.87
2022-11-17T19:27:17.433Z,6.72
2022-11-17T19:32:24.057Z,6.54
2022-11-17T19:37:30.270Z,7.06
2022-11-17T19:42:36.672Z,7.14
2022-11-17T19:47:42.879Z,6.71
2022-11-17T19:52:49.653Z,6.86
2022-11-17T19:57:55.833Z,7.05
2022-11-17T20:03:02.455Z,6.91
2022-11-17T20:08:08.933Z,7.14
2022-11-17T20:13:15.116Z,6.97
2022-11-17T20:18:21.176Z,7.05
2022-11-17T20:23:27.423Z,7.17
2022-11-17T20:28:33.594Z,7.29
2022-11-17T20:33:39.796Z,7.36
2022-11-17T20:38:45.884Z,7.20
2022-11-17T20:43:52.467Z,7.29
2022-11-17T20:48:58.565Z,7.31
2022-11-17T20:54:04.767Z,7.38
2022-11-17T20:59:48.717Z,8.13
2022-11-17T21:04:54.917Z,7.27
2022-11-17T21:10:01.093Z,7.21
2022-11-17T21:15:07.211Z,6.76
2022-11-17T21:20:13.661Z,6.95
2022-11-17T21:25:20.262Z,6.54
2022-11-17T21:30:26.418Z,7.03
2022-11-17T21:35:32.549Z,6.64
2022-11-17T21:40:38.697Z,6.43
2022-11-17T21:45:44.945Z,6.82
2022-11-17T21:50:51.013Z,5.95
2022-11-17T21:55:57.302Z,6.03
2022-11-17T22:01:03.413Z,5.86
2022-11-17T22:06:09.641Z,5.93
2022-11-17T22:11:15.745Z,5.45
2022-11-17T22:16:21.895Z,6.23
2022-11-17T22:21:28.039Z,5.93
2022-11-17T22:26:34.245Z,6.25
2022-11-17T22:31:40.344Z,6.41
2022-11-17T22:36:46.873Z,6.30
2022-11-17T22:41:52.963Z,5.97
2022-11-17T22:46:59.564Z,5.96
2022-11-17T22:52:06.061Z,5.75
2022-11-17T22:57:12.205Z,5.64
2022-11-17T23:02:18.317Z,5.63
2022-11-17T23:07:24.591Z,6.07
2022-11-17T23:12:30.631Z,6.30
2022-11-17T23:17:36.790Z,6.83
2022-11-17T23:22:43.266Z,6.79
2022-11-17T23:27:49.409Z,6.91
2022-11-17T23:32:55.821Z,7.13
2022-11-17T23:38:01.957Z,7.05
2022-11-17T23:43:08.371Z,6.90
2022-11-17T23:48:14.583Z,6.89
2022-11-17T23:53:20.648Z,7.34
2022-11-17T23:58:26.853Z,7.37
